Time,TemperatureF,DewpointF,PressureIn,WindDirection,WindDirectionDegrees,WindSpeedMPH,WindSpeedGustMPH,Humidity,HourlyPrecipIn,Conditions,Clouds,dailyrainin,SoftwareType,DateUTC
2013-01-16 00:09:00,46.9,46.9,28.04,WNW,285,1.0,4.0,100,0.00,CLR,,0.00,WeatherDisplay:10.37,2013-01-16 05:09:00,
2013-01-16 00:19:00,47.3,47.3,28.04,SW,233,1.0,3.0,100,0.00,CLR,,0.00,WeatherDisplay:10.37,2013-01-16 05:19:00,
2013-01-16 00:29:00,47.3,47.3,28.04,East,79,1.0,3.0,100,0.00,CLR,,0.00,WeatherDisplay:10.37,2013-01-16 05:29:00,
2013-01-16 00:39:00,47.3,47.3,28.04,SSW,209,2.0,3.0,100,0.00,CLR,,0.00,WeatherDisplay:10.37,2013-01-16 05:39:00,
2013-01-16 00:49:00,47.5,47.5,28.04,WSW,253,1.0,3.0,100,0.00,CLR,,0.00,WeatherDisplay:10.37,2013-01-16 05:49:00,
2013-01-16 00:59:00,47.5,47.5,28.04,East,81,2.0,3.0,100,0.00,CLR,,0.00,WeatherDisplay:10.37,2013-01-16 05:59:00,
2013-01-16 01:09:00,47.5,47.5,28.04,East,97,2.0,3.0,100,0.00,CLR,,0.00,WeatherDisplay:10.37,2013-01-16 06:09:00,
2013-01-16 01:19:00,47.5,47.5,28.04,East,83,1.0,3.0,100,0.00,CLR,,0.00,WeatherDisplay:10.37,2013-01-16 06:19:00,
2013-01-16 01:29:00,47.1,47.1,28.01,ENE,67,2.0,5.0,100,0.00,CLR,,0.00,WeatherDisplay:10.37,2013-01-16 06:29:00,
2013-01-16 01:39:00,47.1,47.1,28.01,NE,52,1.0,3.0,100,0.00,CLR,,0.00,WeatherDisplay:10.37,2013-01-16 06:39:00,
2013-01-16 01:49:00,46.9,46.9,28.01,East,88,0.0,2.0,100,0.00,CLR,,0.00,WeatherDisplay:10.37,2013-01-16 06:49:00,
2013-01-16 01:59:00,46.9,46.9,28.01,ENE,77,0.0,2.0,100,0.00,CLR,,0.00,WeatherDisplay:10.37,2013-01-16 06:59:00,
2013-01-16 02:09:00,46.9,46.9,28.01,NNE,29,0.0,2.0,100,0.00,CLR,,0.00,WeatherDisplay:10.37,2013-01-16 07:09:00,
2013-01-16 02:19:00,46.9,46.9,28.01,North,9,0.0,3.0,100,0.00,CLR,,0.00,WeatherDisplay:10.37,2013-01-16 07:19:00,
2013-01-16 02:29:00,47.1,47.1,28.01,NNE,25,2.0,5.0,100,0.00,CLR,,0.00,WeatherDisplay:10.37,2013-01-16 07:29:00,
2013-01-16 02:39:00,47.1,47.1,28.01,NE,53,2.0,5.0,100,0.00,CLR,,0.00,WeatherDisplay:10.37,2013-01-16 07:39:00,
2013-01-16 02:49:00,47.1,47.1,28.01,NNE,31,0.0,3.0,100,0.00,CLR,,0.00,WeatherDisplay:10.37,2013-01-16 07:49:00,
2013-01-16 02:59:00,47.2,47.2,28.01,NNE,20,2.0,3.0,100,0.00,CLR,,0.00,WeatherDisplay:10.37,2013-01-16 07:59:00,
2013-01-16 03:09:00,47.3,47.3,28.01,ENE,60,3.0,4.0,100,0.00,CLR,,0.00,WeatherDisplay:10.37,2013-01-16 08:09:00,
2013-01-16 03:19:00,47.3,47.3,28.01,NNE,33,0.0,4.0,100,0.00,CLR,,0.00,WeatherDisplay:10.37,2013-01-16 08:19:00,
2013-01-16 03:29:00,47.3,47.3,28.01,NNE,22,0.0,0.0,100,0.00,CLR,,0.00,WeatherDisplay:10.37,2013-01-16 08:29:00,
2013-01-16 03:39:00,47.5,47.5,28.01,North,349,1.0,3.0,100,0.00,CLR,,0.00,WeatherDisplay:10.37,2013-01-16 08:39:00,
2013-01-16 03:49:00,47.5,47.5,28.01,North,357,1.0,4.0,100,0.00,CLR,,0.00,WeatherDisplay:10.37,2013-01-16 08:49:00,
2013-01-16 03:59:00,47.5,47.5,27.98,NNE,18,2.0,3.0,100,0.00,CLR,,0.00,WeatherDisplay:10.37,2013-01-16 08:59:00,
2013-01-16 04:09:00,47.7,47.7,27.98,North,6,2.0,4.0,100,0.00,CLR,,0.00,WeatherDisplay:10.37,2013-01-16 09:09:00,
2013-01-16 04:19:00,47.5,47.5,27.98,NNE,21,3.0,5.0,100,0.00,CLR,,0.00,WeatherDisplay:10.37,2013-01-16 09:19:00,
2013-01-16 04:29:00,47.5,47.5,27.98,NE,56,2.0,5.0,100,0.00,CLR,,0.00,WeatherDisplay:10.37,2013-01-16 09:29:00,
2013-01-16 04:39:00,47.5,47.5,27.98,NNE,14,1.0,3.0,100,0.00,CLR,,0.00,WeatherDisplay:10.37,2013-01-16 09:39:00,
2013-01-16 04:49:00,47.5,47.5,27.98,NNE,16,1.0,2.0,100,0.00,CLR,,0.00,WeatherDisplay:10.37,2013-01-16 09:49:00,
2013-01-16 04:59:00,47.5,47.5,27.98,NNE,18,2.0,3.0,100,0.00,CLR,,0.00,WeatherDisplay:10.37,2013-01-16 09:59:00,
2013-01-16 05:09:00,47.7,47.7,27.98,NNE,27,2.0,5.0,100,0.00,CLR,,0.00,WeatherDisplay:10.37,2013-01-16 10:09:00,
2013-01-16 05:19:00,47.7,47.7,27.95,NNE,23,2.0,3.0,100,0.00,CLR,,0.00,WeatherDisplay:10.37,2013-01-16 10:19:00,
2013-01-16 05:29:00,47.7,47.7,27.98,NNE,24,2.0,5.0,100,0.00,CLR,,0.00,WeatherDisplay:10.37,2013-01-16 10:29:00,
2013-01-16 05:39:00,47.7,47.7,27.98,NNE,27,3.0,4.0,100,0.00,CLR,,0.00,WeatherDisplay:10.37,2013-01-16 10:39:00,
2013-01-16 05:49:00,47.7,47.7,27.95,NNE,23,2.0,4.0,100,0.00,CLR,,0.00,WeatherDisplay:10.37,2013-01-16 10:49:00,
2013-01-16 05:59:00,47.8,47.8,27.95,NNE,28,2.0,4.0,100,0.00,CLR,,0.00,WeatherDisplay:10.37,2013-01-16 10:59:00,
2013-01-16 06:09:00,47.9,47.9,27.95,NNE,28,2.0,3.0,100,0.00,CLR,,0.00,WeatherDisplay:10.37,2013-01-16 11:09:00,
2013-01-16 06:19:00,47.8,47.8,27.98,NW,308,5.0,14.0,100,0.00,CLR,,0.00,WeatherDisplay:10.37,2013-01-16 11:19:00,
2013-01-16 06:29:00,48.0,48.0,28.01,NW,305,3.0,14.0,100,0.00,CLR,,0.00,WeatherDisplay:10.37,2013-01-16 11:29:00,
2013-01-16 06:39:00,47.8,47.8,28.01,NW,309,1.0,9.0,100,0.00,CLR,,0.00,WeatherDisplay:10.37,2013-01-16 11:39:00,
2013-01-16 06:49:00,48.0,48.0,27.98,NNE,24,0.0,3.0,100,0.00,CLR,,0.00,WeatherDisplay:10.37,2013-01-16 11:49:00,
2013-01-16 06:59:00,48.2,48.2,28.01,West,272,0.0,1.0,100,0.00,CLR,,0.00,WeatherDisplay:10.37,2013-01-16 11:59:00,
2013-01-16 07:09:00,48.4,48.4,28.01,NW,318,1.0,2.0,100,0.00,CLR,,0.00,WeatherDisplay:10.37,2013-01-16 12:09:00,
2013-01-16 07:19:00,48.5,48.5,28.01,ENE,68,1.0,2.0,100,0.00,CLR,,0.00,WeatherDisplay:10.37,2013-01-16 12:19:00,
2013-01-16 07:29:00,48.6,48.6,28.01,ENE,66,0.0,3.0,100,0.00,CLR,,0.00,WeatherDisplay:10.37,2013-01-16 12:29:00,
2013-01-16 07:39:00,48.6,48.6,28.01,ESE,119,0.0,2.0,100,0.00,CLR,,0.00,WeatherDisplay:10.37,2013-01-16 12:39:00,
2013-01-16 07:49:00,48.7,48.7,28.04,South,181,1.0,2.0,100,0.00,CLR,,0.00,WeatherDisplay:10.37,2013-01-16 12:49:00,
2013-01-16 07:59:00,48.7,48.7,28.04,SW,221,0.0,2.0,100,0.00,CLR,,0.00,WeatherDisplay:10.37,2013-01-16 12:59:00,
2013-01-16 08:09:00,48.7,48.7,28.04,WSW,248,0.0,0.0,100,0.00,CLR,,0.00,WeatherDisplay:10.37,2013-01-16 13:09:00,
2013-01-16 08:19:00,48.9,48.9,28.04,SW,225,0.0,2.0,100,0.00,CLR,,0.00,WeatherDisplay:10.37,2013-01-16 13:19:00,
2013-01-16 08:29:00,48.9,48.9,28.07,SW,223,0.0,2.0,100,0.00,CLR,,0.00,WeatherDisplay:10.37,2013-01-16 13:29:00,
2013-01-16 08:39:00,49.1,49.1,28.07,SSW,202,1.0,2.0,100,0.00,CLR,,0.00,WeatherDisplay:10.37,2013-01-16 13:39:00,
2013-01-16 08:49:00,49.1,49.1,28.07,SW,216,0.0,3.0,100,0.00,CLR,,0.00,WeatherDisplay:10.37,2013-01-16 13:49:00,
2013-01-16 08:59:00,49.3,49.3,28.07,SSW,204,2.0,3.0,100,0.00,CLR,,0.00,WeatherDisplay:10.37,2013-01-16 13:59:00,
2013-01-16 09:09:00,49.5,49.5,28.07,South,179,0.0,3.0,100,0.00,CLR,,0.00,WeatherDisplay:10.37,2013-01-16 14:09:00,
2013-01-16 09:19:00,49.5,49.5,28.07,South,189,2.0,4.0,100,0.00,CLR,,0.00,WeatherDisplay:10.37,2013-01-16 14:19:00,
2013-01-16 09:29:00,49.6,49.6,28.07,South,187,0.0,4.0,100,0.00,CLR,,0.00,WeatherDisplay:10.37,2013-01-16 14:29:00,
2013-01-16 09:39:00,49.8,49.8,28.07,SW,214,0.0,2.0,100,0.00,CLR,,0.00,WeatherDisplay:10.37,2013-01-16 14:39:00,
2013-01-16 09:49:00,49.8,49.8,28.07,SW,215,0.0,2.0,100,0.00,CLR,,0.00,WeatherDisplay:10.37,2013-01-16 14:49:00,
2013-01-16 09:59:00,49.7,49.7,28.04,NE,46,2.0,4.0,100,0.00,CLR,,0.00,WeatherDisplay:10.37,2013-01-16 14:59:00,
2013-01-16 10:09:00,49.6,49.6,28.04,SE,131,0.0,3.0,100,0.00,CLR,,0.00,WeatherDisplay:10.37,2013-01-16 15:09:00,
2013-01-16 10:19:00,49.6,49.6,28.04,SSE,162,1.0,2.0,100,0.00,CLR,,0.00,WeatherDisplay:10.37,2013-01-16 15:19:00,
2013-01-16 10:29:00,49.7,49.7,28.04,SW,217,1.0,2.0,100,0.00,CLR,,0.00,WeatherDisplay:10.37,2013-01-16 15:29:00,
2013-01-16 10:39:00,50.0,50.0,28.04,SW,228,0.0,1.0,100,0.00,CLR,,0.00,WeatherDisplay:10.37,2013-01-16 15:39:00,
2013-01-16 10:49:00,50.2,50.2,28.04,South,170,2.0,3.0,100,0.00,CLR,,0.00,WeatherDisplay:10.37,2013-01-16 15:49:00,
2013-01-16 10:59:00,50.4,50.4,28.04,SSW,206,2.0,4.0,100,0.00,CLR,,0.00,WeatherDisplay:10.37,2013-01-16 15:59:00,
2013-01-16 11:09:00,50.4,50.4,28.04,SW,223,2.0,5.0,100,0.00,CLR,,0.00,WeatherDisplay:10.37,2013-01-16 16:09:00,
2013-01-16 11:19:00,50.5,50.5,28.01,SW,217,0.0,2.0,100,0.00,CLR,,0.00,WeatherDisplay:10.37,2013-01-16 16:19:00,
2013-01-16 11:29:00,50.7,50.7,28.01,SSW,211,1.0,3.0,100,0.00,CLR,,0.00,WeatherDisplay:10.37,2013-01-16 16:29:00,
2013-01-16 11:39:00,51.1,51.1,28.01,SSW,203,0.0,2.0,100,0.00,CLR,,0.00,WeatherDisplay:10.37,2013-01-16 16:39:00,
2013-01-16 11:49:00,51.3,51.3,28.01,WSW,252,0.0,2.0,100,0.00,CLR,,0.00,WeatherDisplay:10.37,2013-01-16 16:49:00,
2013-01-16 11:59:00,51.6,51.6,28.01,WNW,290,2.0,3.0,100,0.00,CLR,,0.00,WeatherDisplay:10.37,2013-01-16 16:59:00,
2013-01-16 12:09:00,52.1,52.1,28.01,NW,312,2.0,3.0,100,0.00,CLR,,0.00,WeatherDisplay:10.37,2013-01-16 17:09:00,
2013-01-16 12:19:00,52.5,52.5,27.98,NW,314,2.0,4.0,100,0.00,CLR,,0.00,WeatherDisplay:10.37,2013-01-16 17:19:00,
2013-01-16 12:29:00,52.7,52.7,28.01,NW,308,2.0,5.0,100,0.00,CLR,,0.00,WeatherDisplay:10.37,2013-01-16 17:29:00,
2013-01-16 12:39:00,53.1,53.1,28.01,West,268,2.0,6.0,100,0.00,CLR,,0.00,WeatherDisplay:10.37,2013-01-16 17:39:00,
2013-01-16 12:49:00,53.1,53.1,28.01,West,268,6.0,8.0,100,0.00,CLR,,0.00,WeatherDisplay:10.37,2013-01-16 17:49:00,
2013-01-16 12:59:00,52.5,52.5,28.01,WNW,302,5.0,11.0,100,0.00,CLR,,0.00,WeatherDisplay:10.37,2013-01-16 17:59:00,
2013-01-16 13:09:00,52.3,52.3,28.01,WSW,248,2.0,7.0,100,0.00,CLR,,0.00,WeatherDisplay:10.37,2013-01-16 18:09:00,
2013-01-16 13:19:00,51.8,51.8,28.04,WSW,255,3.0,5.0,100,0.00,CLR,,0.00,WeatherDisplay:10.37,2013-01-16 18:19:00,
2013-01-16 13:29:00,51.6,51.6,28.04,West,259,6.0,6.0,100,0.00,CLR,,0.00,WeatherDisplay:10.37,2013-01-16 18:29:00,
2013-01-16 13:39:00,51.6,51.6,28.04,West,269,3.0,9.0,100,0.00,CLR,,0.00,WeatherDisplay:10.37,2013-01-16 18:39:00,
2013-01-16 13:49:00,51.8,51.8,28.04,WSW,244,2.0,5.0,100,0.00,CLR,,0.00,WeatherDisplay:10.37,2013-01-16 18:49:00,
2013-01-16 13:59:00,51.9,51.9,28.04,WSW,240,3.0,6.0,100,0.00,CLR,,0.00,WeatherDisplay:10.37,2013-01-16 18:59:00,
2013-01-16 14:09:00,52.0,52.0,28.04,SSW,208,3.0,6.0,100,0.00,CLR,,0.00,WeatherDisplay:10.37,2013-01-16 19:09:00,
2013-01-16 14:19:00,52.0,52.0,28.04,SSW,196,3.0,9.0,100,0.00,CLR,,0.00,WeatherDisplay:10.37,2013-01-16 19:19:00,
2013-01-16 14:29:00,51.8,51.8,28.04,SSW,192,5.0,7.0,100,0.00,CLR,,0.00,WeatherDisplay:10.37,2013-01-16 19:29:00,
2013-01-16 14:39:00,51.4,51.4,28.04,South,188,7.0,8.0,100,0.00,CLR,,0.00,WeatherDisplay:10.37,2013-01-16 19:39:00,
2013-01-16 14:49:00,50.9,50.1,28.04,South,190,3.0,8.0,97,0.00,CLR,,0.00,WeatherDisplay:10.37,2013-01-16 19:49:00,
2013-01-16 14:59:00,50.8,49.9,28.01,South,189,1.0,9.0,97,0.00,CLR,,0.00,WeatherDisplay:10.37,2013-01-16 19:59:00,
2013-01-16 15:09:00,50.9,50.1,28.01,SSW,199,3.0,6.0,97,0.00,CLR,,0.00,WeatherDisplay:10.37,2013-01-16 20:09:00,
2013-01-16 15:19:00,50.9,50.9,28.04,SSW,204,3.0,6.0,100,0.00,CLR,,0.00,WeatherDisplay:10.37,2013-01-16 20:19:00,
2013-01-16 15:29:00,50.7,50.7,28.01,SSW,201,5.0,7.0,100,0.00,CLR,,0.00,WeatherDisplay:10.37,2013-01-16 20:29:00,
2013-01-16 15:39:00,50.7,50.7,28.01,SSW,199,5.0,6.0,100,0.00,CLR,,0.00,WeatherDisplay:10.37,2013-01-16 20:39:00,
2013-01-16 15:49:00,50.7,50.7,28.04,SSW,202,3.0,6.0,100,0.00,CLR,,0.00,WeatherDisplay:10.37,2013-01-16 20:49:00,
2013-01-16 15:59:00,50.7,50.7,28.04,SSW,196,3.0,8.0,100,0.00,CLR,,0.00,WeatherDisplay:10.37,2013-01-16 20:59:00,
2013-01-16 16:09:00,50.7,50.7,28.04,SSW,196,5.0,6.0,100,0.00,CLR,,0.00,WeatherDisplay:10.37,2013-01-16 21:09:00,
2013-01-16 16:19:00,50.5,50.5,28.04,SSW,205,3.0,10.0,100,0.00,CLR,,0.00,WeatherDisplay:10.37,2013-01-16 21:19:00,
2013-01-16 16:29:00,50.5,50.5,28.04,SSW,204,2.0,8.0,100,0.00,CLR,,0.00,WeatherDisplay:10.37,2013-01-16 21:29:00,
2013-01-16 16:39:00,50.5,50.5,28.04,SW,231,2.0,6.0,100,0.00,CLR,,0.00,WeatherDisplay:10.37,2013-01-16 21:39:00,
2013-01-16 16:49:00,50.4,50.4,28.04,SW,225,2.0,6.0,100,0.00,CLR,,0.00,WeatherDisplay:10.37,2013-01-16 21:49:00,
2013-01-16 16:59:00,50.4,50.4,28.04,SSW,203,3.0,7.0,100,0.00,CLR,,0.00,WeatherDisplay:10.37,2013-01-16 21:59:00,
2013-01-16 17:09:00,50.2,50.2,28.04,SSW,213,1.0,5.0,100,0.00,CLR,,0.00,WeatherDisplay:10.37,2013-01-16 22:09:00,
2013-01-16 17:19:00,50.2,50.2,28.07,SW,224,3.0,6.0,100,0.00,CLR,,0.00,WeatherDisplay:10.37,2013-01-16 22:19:00,
2013-01-16 17:29:00,50.0,50.0,28.07,West,261,2.0,5.0,100,0.00,CLR,,0.00,WeatherDisplay:10.37,2013-01-16 22:29:00,
2013-01-16 17:39:00,49.8,49.8,28.07,West,267,2.0,4.0,100,0.00,CLR,,0.00,WeatherDisplay:10.37,2013-01-16 22:39:00,
2013-01-16 17:49:00,49.6,49.6,28.04,West,271,2.0,6.0,100,0.00,CLR,,0.00,WeatherDisplay:10.37,2013-01-16 22:49:00,
2013-01-16 17:59:00,49.5,49.5,28.04,West,269,1.0,5.0,100,0.00,CLR,,0.00,WeatherDisplay:10.37,2013-01-16 22:59:00,
2013-01-16 18:09:00,49.3,49.3,28.04,SW,229,1.0,3.0,100,0.00,CLR,,0.00,WeatherDisplay:10.37,2013-01-16 23:09:00,
2013-01-16 18:19:00,49.1,49.1,28.04,West,277,1.0,5.0,100,0.00,CLR,,0.00,WeatherDisplay:10.37,2013-01-16 23:19:00,
2013-01-16 18:29:00,48.4,48.4,28.07,WNW,303,6.0,9.0,100,0.00,CLR,,0.00,WeatherDisplay:10.37,2013-01-16 23:29:00,
2013-01-16 18:39:00,47.1,45.8,28.07,NW,311,5.0,10.0,95,0.00,CLR,,0.00,WeatherDisplay:10.37,2013-01-16 23:39:00,
2013-01-16 18:49:00,46.1,44.5,28.07,NW,314,5.0,8.0,94,0.00,CLR,,0.00,WeatherDisplay:10.37,2013-01-16 23:49:00,
2013-01-16 18:59:00,45.3,43.4,28.09,NW,308,7.0,9.0,93,0.00,CLR,,0.00,WeatherDisplay:10.37,2013-01-16 23:59:00,
2013-01-16 19:09:00,44.2,42.1,28.09,NW,321,5.0,8.0,92,0.00,CLR,,0.00,WeatherDisplay:10.37,2013-01-17 00:09:00,
2013-01-16 19:19:00,43.6,41.4,28.09,North,2,1.0,5.0,92,0.00,CLR,,0.00,WeatherDisplay:10.37,2013-01-17 00:19:00,
2013-01-16 19:29:00,43.2,41.0,28.09,NNW,338,2.0,4.0,92,0.00,CLR,,0.00,WeatherDisplay:10.37,2013-01-17 00:29:00,
2013-01-16 19:39:00,42.8,40.9,28.09,North,352,1.0,3.0,93,0.00,CLR,,0.00,WeatherDisplay:10.37,2013-01-17 00:39:00,
2013-01-16 19:49:00,42.8,41.2,28.07,ENE,73,2.0,3.0,94,0.00,CLR,,0.00,WeatherDisplay:10.37,2013-01-17 00:49:00,
2013-01-16 19:59:00,42.6,41.3,28.07,NE,34,1.0,3.0,95,0.00,CLR,,0.00,WeatherDisplay:10.37,2013-01-17 00:59:00,
2013-01-16 20:09:00,42.6,41.3,28.07,WNW,290,0.0,2.0,95,0.00,CLR,,0.00,WeatherDisplay:10.37,2013-01-17 01:09:00,
2013-01-16 20:19:00,42.6,41.6,28.09,South,180,0.0,2.0,96,0.00,CLR,,0.00,WeatherDisplay:10.37,2013-01-17 01:19:00,
2013-01-16 20:29:00,42.6,41.6,28.07,SSW,205,0.0,1.0,96,0.00,CLR,,0.00,WeatherDisplay:10.37,2013-01-17 01:29:00,
2013-01-16 20:39:00,42.6,41.6,28.07,SW,220,0.0,0.0,96,0.00,CLR,,0.00,WeatherDisplay:10.37,2013-01-17 01:39:00,
2013-01-16 20:49:00,42.6,41.6,28.07,WNW,292,1.0,2.0,96,0.00,CLR,,0.00,WeatherDisplay:10.37,2013-01-17 01:49:00,
2013-01-16 20:59:00,42.6,41.8,28.07,NNE,27,2.0,3.0,97,0.00,CLR,,0.00,WeatherDisplay:10.37,2013-01-17 01:59:00,
2013-01-16 21:09:00,42.8,42.0,28.07,North,1,0.0,2.0,97,0.00,CLR,,0.00,WeatherDisplay:10.37,2013-01-17 02:09:00,
2013-01-16 21:19:00,42.9,42.9,28.07,NNE,25,1.0,2.0,100,0.00,,,0.00,WeatherDisplay:10.37,2013-01-17 02:19:00,
2013-01-16 21:29:00,43.0,43.0,28.07,North,5,2.0,3.0,100,0.00,,,0.00,WeatherDisplay:10.37,2013-01-17 02:29:00,
2013-01-16 21:39:00,43.2,43.2,28.07,WNW,296,1.0,5.0,100,0.00,,,0.00,WeatherDisplay:10.37,2013-01-17 02:39:00,
2013-01-16 21:49:00,43.5,43.5,28.07,West,272,1.0,3.0,100,0.00,,,0.00,WeatherDisplay:10.37,2013-01-17 02:49:00,
2013-01-16 21:59:00,43.3,43.3,28.09,West,279,2.0,5.0,100,0.00,,,0.00,WeatherDisplay:10.37,2013-01-17 02:59:00,
2013-01-16 22:09:00,43.4,43.4,28.09,North,349,1.0,3.0,100,0.00,,,0.00,WeatherDisplay:10.37,2013-01-17 03:09:00,
2013-01-16 22:19:00,43.5,43.5,28.07,NNW,338,2.0,3.0,100,0.00,,,0.00,WeatherDisplay:10.37,2013-01-17 03:19:00,
2013-01-16 22:29:00,43.7,43.7,28.07,WSW,251,0.0,4.0,100,0.00,,,0.00,WeatherDisplay:10.37,2013-01-17 03:29:00,
2013-01-16 22:39:00,43.5,43.5,28.07,NW,304,5.0,6.0,100,0.00,,,0.00,WeatherDisplay:10.37,2013-01-17 03:39:00,
2013-01-16 22:49:00,43.3,43.3,28.07,NW,308,6.0,7.0,100,0.00,,,0.00,WeatherDisplay:10.37,2013-01-17 03:49:00,
2013-01-16 22:59:00,43.3,43.3,28.09,WNW,297,5.0,7.0,100,0.00,,,0.00,WeatherDisplay:10.37,2013-01-17 03:59:00,